createdAt,value
2019-03-20T00:02:19.439Z,14.27
2019-03-20T00:04:49.867Z,15.33
2019-03-20T00:07:14.295Z,14.70
2019-03-20T00:09:41.732Z,15.97
2019-03-20T00:12:09.240Z,15.13
2019-03-20T00:14:36.679Z,14.10
2019-03-20T00:17:04.195Z,14.50
2019-03-20T00:19:31.507Z,14.60
2019-03-20T00:21:58.945Z,14.13
2019-03-20T00:24:26.347Z,13.17
2019-03-20T00:26:53.785Z,14.60
2019-03-20T00:29:21.204Z,14.80
2019-03-20T00:31:48.710Z,15.03
2019-03-20T00:34:16.139Z,13.83
2019-03-20T00:36:45.753Z,14.73
2019-03-20T00:39:13.191Z,14.27
2019-03-20T00:41:40.614Z,13.77
2019-03-20T00:44:08.044Z,13.87
2019-03-20T00:46:35.462Z,13.93
2019-03-20T00:49:02.889Z,16.83
2019-03-20T00:51:30.313Z,15.30
2019-03-20T00:53:57.722Z,14.70
2019-03-20T00:56:25.159Z,13.83
2019-03-20T00:58:52.566Z,11.97
2019-03-20T01:01:20.000Z,12.57
2019-03-20T01:03:47.425Z,13.10
2019-03-20T01:06:14.861Z,13.43
2019-03-20T01:08:42.281Z,12.70
2019-03-20T01:11:09.715Z,12.50
2019-03-20T01:13:37.128Z,12.83
2019-03-20T01:16:04.572Z,12.57
2019-03-20T01:18:32.008Z,13.33
2019-03-20T01:20:59.447Z,13.57
2019-03-20T01:23:26.852Z,13.17
2019-03-20T01:25:54.282Z,13.00
2019-03-20T01:28:21.678Z,12.60
2019-03-20T01:30:49.114Z,13.97
2019-03-20T01:33:16.545Z,14.87
2019-03-20T01:35:43.957Z,12.57
2019-03-20T01:38:11.391Z,11.77
2019-03-20T01:40:40.244Z,12.60
2019-03-20T01:43:06.203Z,13.53
2019-03-20T01:45:33.643Z,13.53
2019-03-20T01:48:01.070Z,14.90
2019-03-20T01:50:28.484Z,13.60
2019-03-20T01:52:55.914Z,14.50
2019-03-20T01:55:23.320Z,14.17
2019-03-20T01:57:50.740Z,13.23
2019-03-20T02:00:18.145Z,12.73
2019-03-20T02:02:45.583Z,13.73
2019-03-20T02:05:13.019Z,12.97
2019-03-20T02:07:40.441Z,14.27
2019-03-20T02:10:14.059Z,15.13
2019-03-20T02:12:41.463Z,15.23
2019-03-20T02:15:11.757Z,14.33
2019-03-20T02:17:39.185Z,14.00
2019-03-20T02:20:06.597Z,14.13
2019-03-20T02:22:34.033Z,13.83
2019-03-20T02:25:01.443Z,13.70
2019-03-20T02:27:28.846Z,13.80
2019-03-20T02:29:56.282Z,13.87
2019-03-20T02:32:23.736Z,13.67
2019-03-20T02:34:51.142Z,14.17
2019-03-20T02:37:18.540Z,14.13
2019-03-20T02:39:45.972Z,13.67
2019-03-20T02:42:13.402Z,13.03
2019-03-20T02:44:40.808Z,13.57
2019-03-20T02:47:08.243Z,15.10
2019-03-20T02:49:35.670Z,12.77
2019-03-20T02:52:06.079Z,14.37
2019-03-20T02:54:33.538Z,15.17
2019-03-20T02:57:04.914Z,14.70
2019-03-20T02:59:31.062Z,14.13
2019-03-20T03:01:58.474Z,15.13
2019-03-20T03:04:25.886Z,15.63
2019-03-20T03:06:55.750Z,15.87
2019-03-20T03:09:23.193Z,15.97
2019-03-20T03:11:50.596Z,15.83
2019-03-20T03:14:18.010Z,14.57
2019-03-20T03:16:45.456Z,15.30
2019-03-20T03:19:12.857Z,15.10
2019-03-20T03:22:00.178Z,15.57
2019-03-20T03:24:27.588Z,15.67
2019-03-20T03:26:55.008Z,15.50
2019-03-20T03:29:22.442Z,15.17
2019-03-20T03:31:49.886Z,14.73
2019-03-20T03:34:17.291Z,14.80
2019-03-20T03:36:44.733Z,14.77
2019-03-20T03:39:13.295Z,15.83
2019-03-20T03:41:39.577Z,15.10
2019-03-20T03:44:07.009Z,14.63
2019-03-20T03:46:34.433Z,14.40
2019-03-20T03:49:01.875Z,14.40
2019-03-20T03:51:29.292Z,14.50
2019-03-20T03:53:56.733Z,14.30
2019-03-20T03:56:24.142Z,14.83
2019-03-20T03:58:51.689Z,15.50
2019-03-20T04:01:19.095Z,14.93
2019-03-20T04:03:46.518Z,15.30
2019-03-20T04:06:13.984Z,14.73
2019-03-20T04:08:44.174Z,17.50
2019-03-20T04:11:11.629Z,15.77
2019-03-20T04:13:39.061Z,15.87
2019-03-20T04:16:06.528Z,15.30
2019-03-20T04:18:33.918Z,17.97
2019-03-20T04:21:01.429Z,17.00
2019-03-20T04:23:28.832Z,16.83
2019-03-20T04:25:56.300Z,15.90
2019-03-20T04:28:23.692Z,16.57
2019-03-20T04:30:51.127Z,15.57
2019-03-20T04:33:18.528Z,16.50
2019-03-20T04:35:45.960Z,15.80
2019-03-20T04:38:13.376Z,15.83
2019-03-20T04:40:40.811Z,16.10
2019-03-20T04:43:08.225Z,16.47
2019-03-20T04:45:35.630Z,18.93
2019-03-20T04:48:03.063Z,17.43
2019-03-20T04:50:30.468Z,16.80
2019-03-20T04:52:57.902Z,16.13
2019-03-20T04:55:25.299Z,18.17
2019-03-20T04:57:52.714Z,17.67
2019-03-20T05:00:23.075Z,18.23
2019-03-20T05:02:50.511Z,15.83
2019-03-20T05:05:17.939Z,17.80
2019-03-20T05:07:45.352Z,18.13
2019-03-20T05:10:18.731Z,18.63
2019-03-20T05:12:46.181Z,19.40
2019-03-20T05:15:13.569Z,19.00
2019-03-20T05:17:41.010Z,19.03
2019-03-20T05:20:11.150Z,18.30
2019-03-20T05:22:38.574Z,19.70
2019-03-20T05:25:06.009Z,19.33
2019-03-20T05:27:33.420Z,19.00
2019-03-20T05:30:00.857Z,20.03
2019-03-20T05:32:28.285Z,19.13
2019-03-20T05:34:55.693Z,19.93
2019-03-20T05:37:23.130Z,19.10
2019-03-20T05:39:50.554Z,18.77
2019-03-20T05:42:17.967Z,19.83
2019-03-20T05:44:45.388Z,19.87
2019-03-20T05:47:12.784Z,20.70
2019-03-20T05:49:40.217Z,20.63
2019-03-20T05:52:07.630Z,21.60
2019-03-20T05:54:35.031Z,21.37
2019-03-20T05:57:02.477Z,22.23
2019-03-20T05:59:29.921Z,21.77
2019-03-20T06:01:57.330Z,23.37
2019-03-20T06:04:24.746Z,22.37
2019-03-20T06:06:52.165Z,23.13
2019-03-20T06:09:19.583Z,23.27
2019-03-20T06:11:47.022Z,20.90
2019-03-20T06:14:14.440Z,21.33
2019-03-20T06:16:41.860Z,24.50
2019-03-20T06:19:09.291Z,23.30
2019-03-20T06:21:36.698Z,23.30
2019-03-20T06:24:04.107Z,20.83
2019-03-20T06:26:31.546Z,23.70
2019-03-20T06:28:58.964Z,22.93
2019-03-20T06:31:26.395Z,22.90
2019-03-20T06:33:53.799Z,22.30
2019-03-20T06:36:21.234Z,20.47
2019-03-20T06:38:48.635Z,20.23
2019-03-20T06:41:16.068Z,21.27
2019-03-20T06:43:43.513Z,19.83
2019-03-20T06:46:10.919Z,19.30
2019-03-20T06:48:38.399Z,19.80
2019-03-20T06:51:05.806Z,18.33
2019-03-20T06:53:33.216Z,18.33
2019-03-20T06:56:00.656Z,17.23
2019-03-20T06:58:28.099Z,19.27
2019-03-20T07:01:04.078Z,17.80
2019-03-20T07:03:31.513Z,17.53
2019-03-20T07:05:58.943Z,18.73
2019-03-20T07:08:26.357Z,19.43
2019-03-20T07:11:05.296Z,17.63
2019-03-20T07:13:32.707Z,17.60
2019-03-20T07:16:00.153Z,16.93
2019-03-20T07:18:27.575Z,17.13
2019-03-20T07:20:54.979Z,16.67
2019-03-20T07:23:22.424Z,19.53
2019-03-20T07:25:49.852Z,16.50
2019-03-20T07:28:17.274Z,15.80
2019-03-20T07:30:44.686Z,15.03
2019-03-20T07:33:12.092Z,13.70
2019-03-20T07:35:39.528Z,15.10
2019-03-20T07:38:06.935Z,15.50
2019-03-20T07:40:34.377Z,14.03
2019-03-20T07:43:08.613Z,13.47
2019-03-20T07:45:29.300Z,14.20
2019-03-20T07:47:56.743Z,13.07
2019-03-20T07:50:24.149Z,13.13
2019-03-20T07:52:51.589Z,12.63
2019-03-20T07:55:18.998Z,13.00
2019-03-20T07:57:46.402Z,12.37
2019-03-20T08:00:13.852Z,13.07
2019-03-20T08:02:41.287Z,10.97
2019-03-20T08:05:08.694Z,11.37
2019-03-20T08:07:36.154Z,10.83
2019-03-20T08:10:03.559Z,9.20
2019-03-20T08:12:30.950Z,9.97
2019-03-20T08:14:58.392Z,9.57
2019-03-20T08:17:25.787Z,9.10
2019-03-20T08:19:53.207Z,8.57
2019-03-20T08:22:20.626Z,7.57
2019-03-20T08:24:48.029Z,7.20
2019-03-20T08:27:15.453Z,6.87
2019-03-20T08:29:42.851Z,7.20
2019-03-20T08:32:10.276Z,6.53
2019-03-20T08:34:37.678Z,6.87
2019-03-20T08:37:05.102Z,6.77
2019-03-20T08:39:32.507Z,6.07
2019-03-20T08:41:59.927Z,6.30
2019-03-20T08:44:27.361Z,5.73
2019-03-20T08:46:54.754Z,5.53
2019-03-20T08:49:22.149Z,5.83
2019-03-20T08:51:49.576Z,5.40
2019-03-20T08:54:16.969Z,5.37
2019-03-20T08:56:44.490Z,5.13
2019-03-20T08:59:11.891Z,5.47
2019-03-20T09:01:39.283Z,4.67
2019-03-20T09:04:06.706Z,5.00
2019-03-20T09:06:34.096Z,5.00
2019-03-20T09:09:01.510Z,5.23
2019-03-20T09:11:28.914Z,5.27
2019-03-20T09:13:56.336Z,5.50
2019-03-20T09:16:23.766Z,5.03
2019-03-20T09:18:51.179Z,3.83
2019-03-20T09:21:18.595Z,4.23
2019-03-20T09:23:46.029Z,4.50
2019-03-20T09:26:13.431Z,4.07
2019-03-20T09:28:40.827Z,4.13
2019-03-20T09:31:08.260Z,4.47
2019-03-20T09:33:35.659Z,3.40
2019-03-20T09:36:03.080Z,4.60
2019-03-20T09:38:30.506Z,3.77
2019-03-20T09:40:57.928Z,4.33
2019-03-20T09:43:25.314Z,4.50
2019-03-20T09:45:52.732Z,3.90
2019-03-20T09:48:20.128Z,4.43
2019-03-20T09:50:47.549Z,4.03
2019-03-20T09:53:14.962Z,3.83
2019-03-20T09:55:42.369Z,4.00
2019-03-20T09:58:11.885Z,4.30
2019-03-20T10:00:37.197Z,3.67
2019-03-20T10:03:04.623Z,4.00
2019-03-20T10:05:32.028Z,4.27
2019-03-20T10:07:59.435Z,3.40
2019-03-20T10:10:26.863Z,3.73
2019-03-20T10:12:54.309Z,3.57
2019-03-20T10:15:30.145Z,4.00
2019-03-20T10:17:57.569Z,3.47
2019-03-20T10:20:24.952Z,4.80
2019-03-20T10:22:52.387Z,3.90
2019-03-20T10:25:19.782Z,3.93
2019-03-20T10:27:47.180Z,4.17
2019-03-20T10:30:20.365Z,3.70
2019-03-20T10:32:47.761Z,4.27
2019-03-20T10:35:15.173Z,4.03
2019-03-20T10:37:42.571Z,3.83
2019-03-20T10:40:10.032Z,3.70
2019-03-20T10:42:37.467Z,3.93
2019-03-20T10:45:04.911Z,3.70
2019-03-20T10:47:32.333Z,4.10
2019-03-20T10:49:59.752Z,4.07
2019-03-20T10:52:27.151Z,4.13
2019-03-20T10:54:54.570Z,4.10
2019-03-20T10:57:21.958Z,4.00
2019-03-20T10:59:49.376Z,3.90
2019-03-20T11:02:16.803Z,3.93
2019-03-20T11:04:44.220Z,4.10
2019-03-20T11:07:11.643Z,4.30
2019-03-20T11:09:39.057Z,4.20
2019-03-20T11:12:06.470Z,4.13
2019-03-20T11:14:33.874Z,3.97
2019-03-20T11:17:01.298Z,3.97
2019-03-20T11:19:28.697Z,3.70
2019-03-20T11:21:56.123Z,3.80
2019-03-20T11:24:23.530Z,3.60
2019-03-20T11:26:50.924Z,3.80
2019-03-20T11:29:21.654Z,3.90
2019-03-20T11:31:45.739Z,3.80
2019-03-20T11:34:13.162Z,3.57
2019-03-20T11:36:40.580Z,3.80
2019-03-20T11:39:08.014Z,3.00
2019-03-20T11:41:35.412Z,2.93
2019-03-20T11:44:02.900Z,3.30
2019-03-20T11:46:30.301Z,2.93
2019-03-20T11:48:57.728Z,3.10
2019-03-20T11:51:25.149Z,2.47
2019-03-20T11:53:52.567Z,2.70
2019-03-20T11:56:19.988Z,3.00
2019-03-20T11:58:47.393Z,2.80
2019-03-20T12:01:17.745Z,2.83
2019-03-20T12:03:45.145Z,3.17
2019-03-20T12:06:12.540Z,3.03
2019-03-20T12:08:39.960Z,3.10
2019-03-20T12:11:07.359Z,3.30
2019-03-20T12:13:34.797Z,2.83
2019-03-20T12:16:02.192Z,2.43
2019-03-20T12:18:29.607Z,3.23
2019-03-20T12:20:57.049Z,2.80
2019-03-20T12:23:24.431Z,2.90
2019-03-20T12:25:51.856Z,3.23
2019-03-20T12:28:19.284Z,3.33
2019-03-20T12:30:46.727Z,3.10
2019-03-20T12:33:14.136Z,3.37
2019-03-20T12:35:41.561Z,2.83
2019-03-20T12:38:14.699Z,3.20
2019-03-20T12:40:36.382Z,2.73
2019-03-20T12:43:03.831Z,2.77
2019-03-20T12:45:37.408Z,2.87
2019-03-20T12:48:07.567Z,3.20
2019-03-20T12:50:34.879Z,3.17
2019-03-20T12:53:02.308Z,3.53
2019-03-20T12:55:31.063Z,3.67
2019-03-20T12:57:57.145Z,3.30
2019-03-20T13:00:27.182Z,3.50
2019-03-20T13:02:51.975Z,3.30
2019-03-20T13:05:19.370Z,3.60
2019-03-20T13:07:46.794Z,2.90
2019-03-20T13:10:17.140Z,3.20
2019-03-20T13:12:44.541Z,2.67
2019-03-20T13:15:21.157Z,2.90
2019-03-20T13:17:48.554Z,3.43
2019-03-20T13:20:15.980Z,2.50
2019-03-20T13:22:43.397Z,2.60
2019-03-20T13:25:16.575Z,3.43
2019-03-20T13:27:44.018Z,3.10
2019-03-20T13:30:32.438Z,2.83
2019-03-20T13:32:59.832Z,2.90
2019-03-20T13:35:27.256Z,3.00
2019-03-20T13:37:54.656Z,3.30
2019-03-20T13:40:22.081Z,3.27
2019-03-20T13:42:49.478Z,3.40
2019-03-20T13:45:19.316Z,3.10
2019-03-20T13:47:46.739Z,3.53
2019-03-20T13:50:14.140Z,2.80
2019-03-20T13:52:41.560Z,2.87
2019-03-20T13:55:08.961Z,2.60
2019-03-20T13:57:36.391Z,2.50
2019-03-20T14:00:03.787Z,2.80
2019-03-20T14:02:31.207Z,2.60
2019-03-20T14:04:58.597Z,2.53
2019-03-20T14:07:26.007Z,2.67
2019-03-20T14:09:53.409Z,2.50
2019-03-20T14:12:20.808Z,2.93
2019-03-20T14:14:48.222Z,2.70
2019-03-20T14:17:15.628Z,2.90
2019-03-20T14:19:43.064Z,2.73
2019-03-20T14:22:10.481Z,2.60
2019-03-20T14:24:37.889Z,2.57
2019-03-20T14:27:05.302Z,2.70
2019-03-20T14:29:32.710Z,2.37
2019-03-20T14:32:00.131Z,2.60
2019-03-20T14:34:27.521Z,3.03
2019-03-20T14:36:54.927Z,2.67
2019-03-20T14:39:22.323Z,3.17
2019-03-20T14:41:49.744Z,3.00
2019-03-20T14:44:17.138Z,2.77
2019-03-20T14:46:44.541Z,2.67
2019-03-20T14:49:11.974Z,2.60
2019-03-20T14:51:39.370Z,2.50
2019-03-20T14:54:06.764Z,2.33
2019-03-20T14:56:34.208Z,2.27
2019-03-20T14:59:01.639Z,2.73
2019-03-20T15:01:29.040Z,2.40
2019-03-20T15:03:56.467Z,2.73
2019-03-20T15:06:23.897Z,3.10
2019-03-20T15:08:51.327Z,2.60
2019-03-20T15:11:18.731Z,3.30
2019-03-20T15:13:46.159Z,2.67
2019-03-20T15:16:13.575Z,3.07
2019-03-20T15:18:40.982Z,3.20
2019-03-20T15:21:08.391Z,3.00
2019-03-20T15:23:35.808Z,2.97
2019-03-20T15:26:03.222Z,2.67
2019-03-20T15:28:30.639Z,2.50
2019-03-20T15:30:58.063Z,2.80
2019-03-20T15:33:25.482Z,3.07
2019-03-20T15:35:52.878Z,2.90
2019-03-20T15:38:20.295Z,2.80
2019-03-20T15:40:55.861Z,2.30
2019-03-20T15:43:15.104Z,2.10
2019-03-20T15:45:42.503Z,2.53
2019-03-20T15:48:09.936Z,2.37
2019-03-20T15:50:37.336Z,2.30
2019-03-20T15:53:04.727Z,2.33
2019-03-20T15:55:32.162Z,2.30
2019-03-20T15:57:59.580Z,2.53
2019-03-20T16:00:26.994Z,2.33
2019-03-20T16:03:18.617Z,2.90
2019-03-20T16:05:46.026Z,2.63
2019-03-20T16:08:13.438Z,2.50
2019-03-20T16:10:40.863Z,2.37
2019-03-20T16:13:08.257Z,2.80
2019-03-20T16:15:35.673Z,2.53
2019-03-20T16:18:03.110Z,2.20
2019-03-20T16:20:30.508Z,2.43
2019-03-20T16:22:57.931Z,2.80
2019-03-20T16:25:25.327Z,2.30
2019-03-20T16:27:52.754Z,2.50
2019-03-20T16:30:23.054Z,2.70
2019-03-20T16:32:50.454Z,2.80
2019-03-20T16:35:17.884Z,2.50
2019-03-20T16:37:45.290Z,8.50
2019-03-20T16:40:24.410Z,4.43
2019-03-20T16:42:51.831Z,3.30
2019-03-20T16:45:19.278Z,2.80
2019-03-20T16:47:46.637Z,2.90
2019-03-20T16:50:16.737Z,2.77
2019-03-20T16:52:44.133Z,2.90
2019-03-20T16:55:11.578Z,3.80
2019-03-20T16:57:39.021Z,2.73
2019-03-20T17:00:18.664Z,3.00
2019-03-20T17:02:46.085Z,3.10
2019-03-20T17:05:13.486Z,2.60
2019-03-20T17:07:40.907Z,2.80
2019-03-20T17:10:08.309Z,3.07
2019-03-20T17:12:35.731Z,3.60
2019-03-20T17:15:03.153Z,3.27
2019-03-20T17:17:30.555Z,3.47
2019-03-20T17:19:57.981Z,3.07
2019-03-20T17:22:25.375Z,3.90
2019-03-20T17:24:52.769Z,3.50
2019-03-20T17:27:20.200Z,3.50
2019-03-20T17:29:47.619Z,3.70
2019-03-20T17:32:15.045Z,3.70
2019-03-20T17:34:42.459Z,4.63
2019-03-20T17:37:09.890Z,3.90
2019-03-20T17:39:37.291Z,4.37
2019-03-20T17:42:04.744Z,4.60
2019-03-20T17:44:32.135Z,4.00
2019-03-20T17:46:59.540Z,4.30
2019-03-20T17:49:26.951Z,3.87
2019-03-20T17:51:54.370Z,3.80
2019-03-20T17:54:21.790Z,3.87
2019-03-20T17:56:49.228Z,4.27
2019-03-20T17:59:16.656Z,4.60
2019-03-20T18:01:44.056Z,4.10
2019-03-20T18:04:11.491Z,5.17
2019-03-20T18:06:38.898Z,4.50
2019-03-20T18:09:06.342Z,4.97
2019-03-20T18:11:33.726Z,4.70
2019-03-20T18:14:01.152Z,5.27
2019-03-20T18:16:28.542Z,4.50
2019-03-20T18:18:55.971Z,5.07
2019-03-20T18:21:23.392Z,5.00
2019-03-20T18:23:50.814Z,4.93
2019-03-20T18:26:18.211Z,5.00
2019-03-20T18:28:45.614Z,5.07
2019-03-20T18:31:13.045Z,5.17
2019-03-20T18:33:40.482Z,5.77
2019-03-20T18:36:07.940Z,5.27
2019-03-20T18:38:35.360Z,5.93
2019-03-20T18:41:02.748Z,5.63
2019-03-20T18:43:30.192Z,6.43
2019-03-20T18:45:57.640Z,6.83
2019-03-20T18:48:25.079Z,6.93
2019-03-20T18:50:52.499Z,7.37
2019-03-20T18:53:19.899Z,7.60
2019-03-20T18:55:47.348Z,8.57
2019-03-20T18:58:14.732Z,21.00
2019-03-20T19:00:42.186Z,8.30
2019-03-20T19:03:24.623Z,8.23
2019-03-20T19:05:52.054Z,9.33
2019-03-20T19:08:19.470Z,9.80
2019-03-20T19:10:46.874Z,10.90
2019-03-20T19:13:14.313Z,11.77
2019-03-20T19:15:41.723Z,11.57
2019-03-20T19:18:09.175Z,10.77
2019-03-20T19:20:36.592Z,10.60
2019-03-20T19:23:04.037Z,9.63
2019-03-20T19:25:31.454Z,10.07
2019-03-20T19:27:58.953Z,8.90
2019-03-20T19:30:26.391Z,8.70
2019-03-20T19:32:54.086Z,7.93
2019-03-20T19:35:21.534Z,7.17
2019-03-20T19:37:48.927Z,6.90
2019-03-20T19:40:16.328Z,7.00
2019-03-20T19:42:43.803Z,7.33
2019-03-20T19:45:11.261Z,6.80
2019-03-20T19:47:38.662Z,6.93
2019-03-20T19:50:06.091Z,7.77
2019-03-20T19:52:33.499Z,7.23
2019-03-20T19:55:00.930Z,8.43
2019-03-20T19:57:28.431Z,7.47
2019-03-20T19:59:55.802Z,8.20
2019-03-20T20:02:23.230Z,8.50
2019-03-20T20:04:50.713Z,9.43
2019-03-20T20:07:18.111Z,9.60
2019-03-20T20:09:45.515Z,10.23
2019-03-20T20:12:12.975Z,12.07
2019-03-20T20:14:40.405Z,10.90
2019-03-20T20:17:07.824Z,10.10
2019-03-20T20:19:35.275Z,10.27
2019-03-20T20:22:02.705Z,9.07
2019-03-20T20:24:30.108Z,9.60
2019-03-20T20:26:57.544Z,10.50
2019-03-20T20:29:24.981Z,15.30
2019-03-20T20:31:52.435Z,15.13
2019-03-20T20:34:19.886Z,16.23
2019-03-20T20:36:47.304Z,14.73
2019-03-20T20:39:14.741Z,15.47
2019-03-20T20:41:42.163Z,13.43
2019-03-20T20:44:09.711Z,11.97
2019-03-20T20:46:37.400Z,10.93
2019-03-20T20:49:04.837Z,9.83
2019-03-20T20:51:32.242Z,9.10
2019-03-20T20:53:59.648Z,8.67
2019-03-20T20:56:27.092Z,8.57
2019-03-20T20:58:54.495Z,9.27
2019-03-20T21:01:21.917Z,8.97
2019-03-20T21:03:49.334Z,9.30
2019-03-20T21:06:16.762Z,9.40
2019-03-20T21:08:44.201Z,9.33
2019-03-20T21:11:11.674Z,10.03
2019-03-20T21:13:39.053Z,9.20
2019-03-20T21:16:06.498Z,9.33
2019-03-20T21:18:45.561Z,9.73
2019-03-20T21:21:13.027Z,10.43
2019-03-20T21:24:17.523Z,10.60
2019-03-20T21:26:59.585Z,10.47
2019-03-20T21:29:51.369Z,10.50
2019-03-20T21:32:36.767Z,9.83
2019-03-20T21:35:25.516Z,10.63
2019-03-20T21:38:04.270Z,9.63
2019-03-20T21:40:37.522Z,9.43
2019-03-20T21:43:42.141Z,10.70
2019-03-20T21:46:33.721Z,10.45
2019-03-20T21:49:01.174Z,9.53
2019-03-20T21:51:28.604Z,9.80
2019-03-20T21:53:58.954Z,9.07
2019-03-20T21:56:28.947Z,10.03
2019-03-20T21:59:14.639Z,10.03
2019-03-20T22:01:56.755Z,10.53
2019-03-20T22:04:24.205Z,11.37
2019-03-20T22:07:06.725Z,11.70
2019-03-20T22:09:34.281Z,11.27
2019-03-20T22:12:10.496Z,13.37
2019-03-20T22:14:37.912Z,11.93
2019-03-20T22:17:20.331Z,12.03
2019-03-20T22:19:59.378Z,12.40
2019-03-20T22:22:38.668Z,12.73
2019-03-20T22:25:17.716Z,13.17
2019-03-20T22:27:45.188Z,11.63
2019-03-20T22:30:12.588Z,13.03
2019-03-20T22:32:58.170Z,11.50
2019-03-20T22:35:34.027Z,12.83
2019-03-20T22:38:01.460Z,11.20
2019-03-20T22:41:05.430Z,11.80
2019-03-20T22:43:35.560Z,11.73
2019-03-20T22:46:05.729Z,13.20
2019-03-20T22:48:57.912Z,12.27
2019-03-20T22:51:58.477Z,13.27
2019-03-20T22:54:52.840Z,12.63
2019-03-20T22:57:32.069Z,11.97
2019-03-20T22:59:59.511Z,12.23
2019-03-20T23:02:32.598Z,12.90
2019-03-20T23:05:00.038Z,13.77
2019-03-20T23:07:27.445Z,13.43
2019-03-20T23:09:54.851Z,12.03
2019-03-20T23:12:22.275Z,11.67
2019-03-20T23:14:49.677Z,14.33
2019-03-20T23:17:17.118Z,16.60
2019-03-20T23:19:44.518Z,12.43
2019-03-20T23:22:11.962Z,12.30
2019-03-20T23:24:39.362Z,11.43
2019-03-20T23:27:06.810Z,10.87
2019-03-20T23:29:34.226Z,11.40
2019-03-20T23:32:01.638Z,11.63
2019-03-20T23:34:29.078Z,12.90
2019-03-20T23:36:56.512Z,12.30
2019-03-20T23:39:23.932Z,13.20
2019-03-20T23:41:51.363Z,14.10
2019-03-20T23:44:18.788Z,15.03
2019-03-20T23:46:46.209Z,15.67
2019-03-20T23:49:13.650Z,15.63
2019-03-20T23:51:41.088Z,16.07
2019-03-20T23:54:08.475Z,12.13
2019-03-20T23:56:35.870Z,14.53
2019-03-20T23:59:03.309Z,17.73
